Time;durP1;ratioP1;P1;durP2;ratioP2;P2;SDS_P1;SDS_P2;PMS_P1;PMS_P2;Temp;Humidity;BMP_temperature;BMP_pressure;BME280_temperature;BME280_humidity;BME280_pressure;Samples;Min_cycle;Max_cycle;Signal;HPM_P1;HPM_P2
2023/07/13 00:00:10;;;;;;;6.93;4.50;;;21.70;75.80;;;;;;5050031;28;20477;-45
2023/07/13 00:02:41;;;;;;;9.37;4.10;;;;;;;;;;5051601;28;20856;-46
2023/07/13 00:05:08;;;;;;;8.50;4.30;;;21.60;75.80;;;;;;5051205;28;20430;-47
2023/07/13 00:07:37;;;;;;;12.33;5.10;;;21.60;76.20;;;;;;5051727;28;20435;-47
2023/07/13 00:10:05;;;;;;;8.57;4.60;;;;;;;;;;5051298;28;20438;-48
2023/07/13 00:12:34;;;;;;;7.00;3.90;;;21.50;76.30;;;;;;5051506;28;20610;-46
2023/07/13 00:15:01;;;;;;;7.90;3.50;;;;;;;;;;5051557;28;20964;-45
2023/07/13 00:17:29;;;;;;;9.47;3.70;;;21.40;76.20;;;;;;5051493;28;20451;-46
2023/07/13 00:19:56;;;;;;;8.00;3.73;;;;;;;;;;5051089;28;21011;-47
2023/07/13 00:22:23;;;;;;;8.53;3.50;;;21.40;76.50;;;;;;5051481;28;20457;-46
2023/07/13 00:24:52;;;;;;;6.43;3.60;;;;;;;;;;5051629;28;20444;-47
2023/07/13 00:27:19;;;;;;;5.60;3.23;;;;;;;;;;5051812;28;20441;-47
2023/07/13 00:29:47;;;;;;;5.57;3.70;;;21.30;76.50;;;;;;5049921;28;20465;-47
2023/07/13 00:32:13;;;;;;;8.87;3.80;;;21.30;76.50;;;;;;5050324;28;20486;-47
2023/07/13 00:34:40;;;;;;;5.10;3.40;;;;;;;;;;5051457;28;20927;-47
2023/07/13 00:37:08;;;;;;;4.40;3.50;;;;;;;;;;5051792;28;20519;-47
2023/07/13 00:39:36;;;;;;;4.63;3.10;;;21.20;77.00;;;;;;5051082;28;20475;-46
2023/07/13 00:42:05;;;;;;;5.20;3.60;;;21.20;77.30;;;;;;5051565;28;20837;-46
2023/07/13 00:44:32;;;;;;;6.53;4.07;;;21.20;77.40;;;;;;5051488;28;20438;-46
2023/07/13 00:46:59;;;;;;;3.87;3.03;;;;;;;;;;5049950;28;20834;-48
2023/07/13 00:49:29;;;;;;;5.97;3.60;;;21.20;77.40;;;;;;5050845;28;20455;-46
2023/07/13 00:52:00;;;;;;;4.73;3.53;;;21.20;77.50;;;;;;5051322;28;20470;-47
2023/07/13 00:54:29;;;;;;;5.67;3.40;;;;;;;;;;5051288;28;20443;-46
2023/07/13 00:56:58;;;;;;;5.80;2.83;;;;;;;;;;5051154;28;20428;-46
2023/07/13 00:59:27;;;;;;;4.33;2.67;;;;;;;;;;5049284;28;20463;-46
2023/07/13 01:01:55;;;;;;;7.73;4.00;;;21.00;77.90;;;;;;5050900;28;20483;-45
2023/07/13 01:04:23;;;;;;;5.90;3.63;;;21.00;78.10;;;;;;5051012;28;20436;-47
2023/07/13 01:06:50;;;;;;;13.80;3.43;;;20.90;78.00;;;;;;5049869;28;20518;-47
2023/07/13 01:09:17;;;;;;;4.30;2.80;;;;;;;;;;5049691;28;20466;-47
2023/07/13 01:11:45;;;;;;;5.33;3.47;;;20.90;78.50;;;;;;5049686;28;20522;-46
2023/07/13 01:14:12;;;;;;;8.43;3.40;;;20.90;78.50;;;;;;5049808;28;20455;-46
2023/07/13 01:16:42;;;;;;;6.83;3.57;;;;;;;;;;5051246;28;20839;-46
2023/07/13 01:19:23;;;;;;;4.13;3.23;;;20.90;78.70;;;;;;5053116;28;20484;-47
2023/07/13 01:21:53;;;;;;;6.07;3.20;;;20.80;78.80;;;;;;5055071;28;20517;-47
2023/07/13 01:24:20;;;;;;;3.87;3.07;;;;;;;;;;5056134;28;20440;-46
2023/07/13 01:26:48;;;;;;;5.60;2.87;;;20.70;79.30;;;;;;5055817;28;20475;-46
2023/07/13 01:29:15;;;;;;;7.03;3.43;;;;;;;;;;5057860;28;20416;-46
2023/07/13 01:31:44;;;;;;;5.53;2.80;;;;;;;;;;5055533;28;20816;-46
2023/07/13 01:34:11;;;;;;;6.47;3.10;;;20.70;79.80;;;;;;5057312;28;20506;-46
2023/07/13 01:36:38;;;;;;;6.67;3.27;;;;;;;;;;5057217;28;20447;-48
2023/07/13 01:39:08;;;;;;;5.60;3.50;;;;;;;;;;5055033;28;20474;-46
2023/07/13 01:41:36;;;;;;;6.40;3.47;;;;;;;;;;5055102;28;20471;-46
2023/07/13 01:44:02;;;;;;;4.83;2.93;;;20.50;80.80;;;;;;5056799;28;20450;-46
2023/07/13 01:46:29;;;;;;;4.20;3.10;;;20.50;81.00;;;;;;5055197;28;20425;-46
2023/07/13 01:48:56;;;;;;;8.37;4.17;;;;;;;;;;5055755;28;20414;-47
2023/07/13 01:51:23;;;;;;;4.07;3.10;;;;;;;;;;5054563;28;20470;-46
2023/07/13 01:53:50;;;;;;;6.50;3.27;;;;;;;;;;5055327;28;20525;-46
2023/07/13 01:56:18;;;;;;;7.90;3.53;;;20.40;81.90;;;;;;5055525;28;20776;-47
2023/07/13 01:58:46;;;;;;;6.37;3.80;;;;;;;;;;5054834;28;20989;-46
2023/07/13 02:01:13;;;;;;;5.07;3.73;;;;;;;;;;5054122;28;20450;-47
2023/07/13 02:03:41;;;;;;;6.30;3.90;;;;;;;;;;5054698;28;20445;-48
2023/07/13 02:06:07;;;;;;;6.57;3.57;;;20.20;82.20;;;;;;5054562;28;20526;-47
2023/07/13 02:08:34;;;;;;;5.83;3.60;;;;;;;;;;5053742;28;20968;-46
2023/07/13 02:11:01;;;;;;;5.47;3.40;;;20.20;83.00;;;;;;5056990;28;20447;-46
2023/07/13 02:13:29;;;;;;;6.87;3.77;;;;;;;;;;5055826;28;20421;-46
2023/07/13 02:15:56;;;;;;;7.20;3.90;;;;;;;;;;5054907;28;20545;-47
2023/07/13 02:18:23;;;;;;;10.40;4.40;;;20.20;83.40;;;;;;5052591;28;20546;-48
2023/07/13 02:20:50;;;;;;;7.50;3.93;;;20.20;83.60;;;;;;5053483;28;20488;-46
2023/07/13 02:23:17;;;;;;;5.93;3.30;;;;;;;;;;5053708;28;20450;-46
2023/07/13 02:25:43;;;;;;;6.93;3.20;;;20.20;83.80;;;;;;5052411;28;20439;-46
2023/07/13 02:28:10;;;;;;;4.07;3.10;;;20.20;84.10;;;;;;5051721;28;20450;-46
2023/07/13 02:30:38;;;;;;;3.90;2.90;;;20.10;84.20;;;;;;5053426;28;20427;-46
2023/07/13 02:33:05;;;;;;;4.60;3.30;;;;;;;;;;5053726;28;20431;-46
2023/07/13 02:35:32;;;;;;;4.03;3.20;;;20.10;84.70;;;;;;5052133;28;20459;-46
2023/07/13 02:37:59;;;;;;;7.97;3.93;;;;;;;;;;5053346;28;20526;-47
2023/07/13 02:40:26;;;;;;;8.00;3.80;;;;;;;;;;5051696;28;20472;-46
2023/07/13 02:42:53;;;;;;;9.10;3.30;;;;;;;;;;5053396;28;20448;-47
2023/07/13 02:45:21;;;;;;;8.23;3.60;;;;;;;;;;5051835;28;20448;-45
2023/07/13 02:47:49;;;;;;;7.60;3.20;;;;;;;;;;5053528;28;20425;-47
2023/07/13 02:50:16;;;;;;;5.40;3.30;;;19.90;85.40;;;;;;5051388;28;20455;-46
2023/07/13 02:52:42;;;;;;;6.20;3.37;;;20.00;85.60;;;;;;5051792;28;21034;-45
2023/07/13 02:55:10;;;;;;;4.37;3.23;;;19.90;85.60;;;;;;5051782;28;20425;-47
2023/07/13 02:57:37;;;;;;;7.53;3.70;;;19.90;85.80;;;;;;5051787;28;20473;-47
2023/07/13 03:00:06;;;;;;;6.57;3.23;;;20.00;85.90;;;;;;5052642;28;20474;-48
2023/07/13 03:02:33;;;;;;;7.60;4.53;;;20.00;86.10;;;;;;5051465;28;20466;-46
2023/07/13 03:05:01;;;;;;;5.53;3.30;;;19.90;86.00;;;;;;5051531;28;20462;-47
2023/07/13 03:07:28;;;;;;;12.30;3.90;;;19.90;86.10;;;;;;5052850;28;20427;-48
2023/07/13 03:09:56;;;;;;;7.00;4.03;;;;;;;;;;5051164;28;20451;-47
2023/07/13 03:12:23;;;;;;;6.37;3.60;;;19.90;86.20;;;;;;5051572;28;20470;-47
2023/07/13 03:14:50;;;;;;;9.20;3.43;;;20.00;86.30;;;;;;5051623;28;20458;-47
2023/07/13 03:17:17;;;;;;;5.40;3.10;;;20.00;86.30;;;;;;5052701;28;20442;-47
2023/07/13 03:19:44;;;;;;;13.53;3.97;;;;;;;;;;5050855;28;21000;-48
2023/07/13 03:22:13;;;;;;;6.00;3.70;;;20.00;86.20;;;;;;5051316;28;20445;-48
2023/07/13 03:24:42;;;;;;;6.70;3.60;;;;;;;;;;5051331;28;20460;-47
2023/07/13 03:27:09;;;;;;;7.53;3.80;;;20.10;86.30;;;;;;5052364;28;20525;-46
2023/07/13 03:29:38;;;;;;;6.57;3.43;;;20.10;86.40;;;;;;5051104;28;20452;-46
2023/07/13 03:32:06;;;;;;;6.43;3.40;;;;;;;;;;5051024;28;20479;-46
2023/07/13 03:34:33;;;;;;;7.57;4.07;;;20.10;86.50;;;;;;5051000;28;20465;-46
2023/07/13 03:37:00;;;;;;;5.40;3.87;;;;;;;;;;5051029;28;20456;-45
2023/07/13 03:39:28;;;;;;;11.70;4.20;;;20.20;86.60;;;;;;5049902;28;20485;-46
2023/07/13 03:41:57;;;;;;;8.23;4.40;;;20.30;86.60;;;;;;5051155;28;21032;-46
2023/07/13 03:44:24;;;;;;;6.07;3.13;;;;;;;;;;5051032;28;20455;-46
2023/07/13 03:46:55;;;;;;;7.20;3.40;;;;;;;;;;5051708;28;20456;-46
2023/07/13 03:49:22;;;;;;;7.17;3.70;;;20.40;86.10;;;;;;5052727;28;20515;-45
2023/07/13 03:51:49;;;;;;;7.50;3.57;;;;;;;;;;5051996;28;20561;-45
2023/07/13 03:54:16;;;;;;;4.57;3.27;;;;;;;;;;5051808;28;20447;-45
2023/07/13 03:56:44;;;;;;;4.80;3.00;;;20.40;86.10;;;;;;5051244;28;20847;-45
2023/07/13 03:59:11;;;;;;;7.53;3.50;;;;;;;;;;5052117;28;20449;-47
2023/07/13 04:01:39;;;;;;;6.57;3.63;;;;;;;;;;5052593;28;20470;-45
2023/07/13 04:04:05;;;;;;;5.47;3.13;;;20.50;86.20;;;;;;5052001;28;20449;-47
2023/07/13 04:06:33;;;;;;;9.27;3.90;;;20.50;86.10;;;;;;5050773;28;20439;-45
2023/07/13 04:09:01;;;;;;;6.03;3.50;;;;;;;;;;5052158;28;20814;-46
2023/07/13 04:11:29;;;;;;;5.23;3.50;;;;;;;;;;5051878;28;20449;-47
2023/07/13 04:13:58;;;;;;;7.70;3.03;;;;;;;;;;5051736;28;20437;-48
2023/07/13 04:16:25;;;;;;;4.03;3.50;;;;;;;;;;5050147;28;20429;-45
2023/07/13 04:18:54;;;;;;;5.57;3.40;;;20.90;85.50;;;;;;5051294;28;20858;-46
2023/07/13 04:21:22;;;;;;;4.13;2.90;;;;;;;;;;5051413;28;20462;-46
2023/07/13 04:23:49;;;;;;;5.40;3.63;;;;;;;;;;5051553;28;20790;-47
2023/07/13 04:26:16;;;;;;;8.80;3.33;;;;;;;;;;5051393;28;20445;-47
2023/07/13 04:28:43;;;;;;;11.50;4.50;;;;;;;;;;5049738;28;20808;-47
2023/07/13 04:31:12;;;;;;;8.33;3.80;;;;;;;;;;5051242;28;20464;-47
2023/07/13 04:33:38;;;;;;;8.83;3.43;;;;;;;;;;5051566;28;20441;-47
2023/07/13 04:36:06;;;;;;;5.77;3.80;;;;;;;;;;5049898;28;20445;-47
2023/07/13 04:38:33;;;;;;;5.27;3.33;;;21.60;83.40;;;;;;5049314;28;20445;-45
2023/07/13 04:41:01;;;;;;;7.40;3.40;;;;;;;;;;5051076;28;20573;-47
2023/07/13 04:43:29;;;;;;;4.90;3.00;;;21.70;83.10;;;;;;5051623;28;20447;-47
2023/07/13 04:45:56;;;;;;;6.83;3.70;;;;;;;;;;5051203;28;20440;-48
2023/07/13 04:48:24;;;;;;;8.93;3.73;;;21.80;82.70;;;;;;5049512;28;20827;-46
2023/07/13 04:50:56;;;;;;;6.80;3.93;;;;;;;;;;5050545;28;20901;-45
2023/07/13 04:53:23;;;;;;;5.17;3.10;;;21.90;82.40;;;;;;5055451;28;20445;-46
2023/07/13 04:55:50;;;;;;;9.47;5.23;;;;;;;;;;5055248;28;20888;-47
2023/07/13 04:58:17;;;;;;;6.30;3.67;;;22.00;82.20;;;;;;5055363;28;20448;-46
2023/07/13 05:00:44;;;;;;;6.30;3.10;;;;;;;;;;5055006;28;20476;-46
2023/07/13 05:03:11;;;;;;;4.43;3.13;;;;;;;;;;5055313;28;20782;-46
2023/07/13 05:05:40;;;;;;;5.27;2.83;;;;;;;;;;5054902;28;20445;-46
2023/07/13 05:08:07;;;;;;;6.17;3.17;;;;;;;;;;5054745;28;20449;-47
2023/07/13 05:10:34;;;;;;;3.37;3.00;;;;;;;;;;5055283;28;20502;-46
2023/07/13 05:13:01;;;;;;;12.70;4.90;;;22.40;81.20;;;;;;5055027;28;20437;-47
2023/07/13 05:15:28;;;;;;;9.60;3.10;;;;;;;;;;5055009;28;20829;-47
2023/07/13 05:17:55;;;;;;;5.73;3.17;;;;;;;;;;5054824;28;20812;-48
2023/07/13 05:20:21;;;;;;;7.07;3.13;;;22.60;80.50;;;;;;5054333;28;20484;-47
2023/07/13 05:22:50;;;;;;;7.10;3.33;;;22.60;80.40;;;;;;5055014;28;20547;-47
2023/07/13 05:25:17;;;;;;;6.63;2.93;;;;;;;;;;5054832;28;20505;-46
2023/07/13 05:27:45;;;;;;;6.13;3.10;;;22.80;80.30;;;;;;5054418;28;20438;-47
2023/07/13 05:30:12;;;;;;;7.10;3.60;;;;;;;;;;5054833;28;20883;-45
2023/07/13 05:32:39;;;;;;;6.10;3.47;;;;;;;;;;5054957;28;20467;-47
2023/07/13 05:35:07;;;;;;;5.00;3.30;;;;;;;;;;5054475;28;20530;-48
2023/07/13 05:37:34;;;;;;;5.30;2.73;;;;;;;;;;5053490;28;20537;-45
2023/07/13 05:40:02;;;;;;;6.03;2.73;;;23.30;78.70;;;;;;5053992;28;20452;-47
2023/07/13 05:42:31;;;;;;;8.03;2.87;;;;;;;;;;5054627;28;20447;-46
2023/07/13 05:44:58;;;;;;;5.27;3.10;;;;;;;;;;5054450;28;20609;-47
2023/07/13 05:47:25;;;;;;;3.23;2.30;;;;;;;;;;5054256;28;20432;-47
2023/07/13 05:49:55;;;;;;;4.00;2.60;;;;;;;;;;5053988;28;20451;-47
2023/07/13 05:52:22;;;;;;;4.07;2.90;;;;;;;;;;5054003;28;20475;-47
2023/07/13 05:54:49;;;;;;;4.27;2.40;;;;;;;;;;5054059;28;20907;-46
2023/07/13 05:57:17;;;;;;;7.13;3.20;;;;;;;;;;5054162;28;20777;-48
2023/07/13 05:59:44;;;;;;;6.03;3.00;;;23.70;77.20;;;;;;5053310;28;20437;-46
2023/07/13 06:02:11;;;;;;;8.70;3.10;;;;;;;;;;5053514;28;20488;-47
2023/07/13 06:04:38;;;;;;;6.50;2.83;;;;;;;;;;5053838;28;20872;-48
2023/07/13 06:07:05;;;;;;;3.23;2.60;;;;;;;;;;5054070;28;20559;-47
2023/07/13 06:09:32;;;;;;;4.70;2.70;;;23.90;76.90;;;;;;5053405;28;20436;-49
2023/07/13 06:11:59;;;;;;;4.50;2.30;;;;;;;;;;5053544;28;20460;-47
2023/07/13 06:14:27;;;;;;;7.83;2.90;;;;;;;;;;5054041;28;20772;-47
2023/07/13 06:16:54;;;;;;;7.10;3.10;;;;;;;;;;5054303;28;20435;-47
2023/07/13 06:19:21;;;;;;;4.73;2.63;;;;;;;;;;5053030;28;20508;-47
2023/07/13 06:21:48;;;;;;;7.43;3.03;;;;;;;;;;5053337;28;20481;-47
2023/07/13 06:24:15;;;;;;;5.13;2.60;;;;;;;;;;5053721;28;20812;-47
2023/07/13 06:26:42;;;;;;;4.23;2.87;;;;;;;;;;5053345;28;20846;-46
2023/07/13 06:29:09;;;;;;;2.50;2.10;;;24.40;75.40;;;;;;5053073;28;20438;-47
2023/07/13 06:31:37;;;;;;;6.70;2.93;;;24.30;75.10;;;;;;5053456;28;20464;-49
2023/07/13 06:34:04;;;;;;;2.93;2.23;;;;;;;;;;5051930;28;20451;-49
2023/07/13 06:36:31;;;;;;;3.33;2.43;;;;;;;;;;5053015;28;20958;-49
2023/07/13 06:38:58;;;;;;;6.23;2.80;;;;;;;;;;5052663;28;20428;-48
2023/07/13 06:41:25;;;;;;;2.97;2.37;;;;;;;;;;5052816;28;20484;-50
2023/07/13 06:43:52;;;;;;;5.27;2.10;;;;;;;;;;5052951;28;20520;-49
2023/07/13 06:46:22;;;;;;;3.33;2.33;;;;;;;;;;5053194;28;20442;-48
2023/07/13 06:48:50;;;;;;;5.27;2.37;;;;;;;;;;5052268;28;20508;-49
2023/07/13 06:51:17;;;;;;;6.90;3.27;;;;;;;;;;5052794;28;20454;-50
2023/07/13 06:53:44;;;;;;;4.23;1.97;;;24.30;74.70;;;;;;5053070;28;20434;-49
2023/07/13 06:56:11;;;;;;;3.50;1.93;;;;;;;;;;5052462;28;20493;-50
2023/07/13 06:58:38;;;;;;;4.23;2.03;;;;;;;;;;5050997;28;20456;-50
2023/07/13 07:01:06;;;;;;;6.00;2.70;;;24.10;74.70;;;;;;5052577;28;20571;-49
2023/07/13 07:03:32;;;;;;;6.10;2.40;;;24.10;74.70;;;;;;5052837;28;20533;-49
2023/07/13 07:06:03;;;;;;;5.90;2.20;;;;;;;;;;5052769;28;20452;-49
2023/07/13 07:08:30;;;;;;;5.00;1.90;;;;;;;;;;5051867;28;20472;-49
2023/07/13 07:10:57;;;;;;;5.97;2.60;;;;;;;;;;5052750;28;20892;-49
2023/07/13 07:13:24;;;;;;;3.00;2.07;;;;;;;;;;5052494;28;20436;-48
2023/07/13 07:15:52;;;;;;;3.00;1.80;;;;;;;;;;5052590;28;20442;-49
2023/07/13 07:18:18;;;;;;;5.13;2.30;;;24.30;72.60;;;;;;5052082;28;20442;-50
2023/07/13 07:20:45;;;;;;;4.57;2.33;;;;;;;;;;5051057;28;20472;-49
2023/07/13 07:23:14;;;;;;;3.73;2.20;;;;;;;;;;5052224;28;20441;-49
2023/07/13 07:25:41;;;;;;;4.90;2.03;;;24.40;72.00;;;;;;5052210;28;20469;-49
2023/07/13 07:28:09;;;;;;;7.10;2.37;;;;;;;;;;5051596;28;20608;-49
2023/07/13 07:30:36;;;;;;;5.67;2.00;;;;;;;;;;5052168;28;20473;-49
2023/07/13 07:33:03;;;;;;;3.73;1.50;;;;;;;;;;5052242;28;20475;-48
2023/07/13 07:35:30;;;;;;;4.60;1.90;;;;;;;;;;5052210;28;20549;-49
2023/07/13 07:37:56;;;;;;;5.60;1.83;;;24.80;68.30;;;;;;5051992;28;20405;-50
2023/07/13 07:40:25;;;;;;;5.00;1.93;;;24.80;68.30;;;;;;5051682;28;20434;-49
2023/07/13 07:42:52;;;;;;;4.10;1.37;;;;;;;;;;5051499;28;20453;-50
2023/07/13 07:45:19;;;;;;;3.80;2.30;;;;;;;;;;5052139;28;20442;-49
2023/07/13 07:47:46;;;;;;;4.73;2.40;;;;;;;;;;5051953;28;20449;-50
2023/07/13 07:50:13;;;;;;;8.50;2.60;;;;;;;;;;5051345;28;20453;-50
2023/07/13 07:52:40;;;;;;;3.70;2.07;;;;;;;;;;5051717;28;20788;-50
2023/07/13 07:55:08;;;;;;;6.40;1.90;;;24.90;68.40;;;;;;5051599;28;21013;-50
2023/07/13 07:57:36;;;;;;;6.50;2.23;;;;;;;;;;5050398;28;20450;-49
2023/07/13 08:00:03;;;;;;;4.60;2.20;;;;;;;;;;5051446;28;20438;-49
2023/07/13 08:02:41;;;;;;;6.63;2.37;;;25.30;67.70;;;;;;5051458;28;20513;-49
2023/07/13 08:05:09;;;;;;;5.63;2.97;;;;;;;;;;5051539;28;20633;-50
2023/07/13 08:07:36;;;;;;;4.37;2.40;;;25.50;67.50;;;;;;5051964;28;21000;-49
2023/07/13 08:10:03;;;;;;;8.03;2.47;;;;;;;;;;5051177;28;20433;-48
2023/07/13 08:12:30;;;;;;;3.30;2.10;;;;;;;;;;5051557;28;20458;-49
2023/07/13 08:15:00;;;;;;;7.90;1.80;;;;;;;;;;5051430;28;20438;-48
2023/07/13 08:17:27;;;;;;;5.23;2.37;;;;;;;;;;5051623;28;20485;-49
2023/07/13 08:19:54;;;;;;;5.43;1.90;;;;;;;;;;5051073;28;20947;-50
2023/07/13 08:22:21;;;;;;;5.57;2.37;;;;;;;;;;5051419;28;20488;-49
2023/07/13 08:24:55;;;;;;;4.20;2.00;;;;;;;;;;5051608;28;20431;-50
2023/07/13 08:27:22;;;;;;;4.77;1.87;;;;;;;;;;5050731;28;20449;-49
2023/07/13 08:29:49;;;;;;;4.73;1.60;;;;;;;;;;5050921;28;20441;-49
2023/07/13 08:32:17;;;;;;;5.00;2.23;;;;;;;;;;5051797;28;20477;-45
2023/07/13 08:34:45;;;;;;;3.40;2.07;;;;;;;;;;5050045;28;20461;-46
2023/07/13 08:37:12;;;;;;;4.83;1.90;;;;;;;;;;5051335;28;20443;-49
2023/07/13 08:39:38;;;;;;;3.30;1.60;;;26.70;62.40;;;;;;5050414;28;20441;-49
2023/07/13 08:42:11;;;;;;;3.20;2.20;;;26.80;62.50;;;;;;5051268;28;20982;-47
2023/07/13 08:44:50;;;;;;;8.00;1.90;;;26.90;62.20;;;;;;5051410;28;20434;-48
2023/07/13 08:47:20;;;;;;;4.83;2.20;;;;;;;;;;5050793;28;20442;-46
2023/07/13 08:49:47;;;;;;;4.47;1.80;;;27.10;60.80;;;;;;5050358;28;20811;-47
2023/07/13 08:52:18;;;;;;;5.97;2.27;;;;;;;;;;5051067;28;20464;-47
2023/07/13 08:54:47;;;;;;;4.00;2.03;;;;;;;;;;5051115;28;20437;-48
2023/07/13 08:57:16;;;;;;;6.50;2.40;;;;;;;;;;5051083;28;20456;-49
2023/07/13 08:59:43;;;;;;;4.00;1.90;;;;;;;;;;5047867;28;20452;-48
2023/07/13 09:02:26;;;;;;;3.40;1.73;;;;;;;;;;5041721;28;20483;-47
2023/07/13 09:04:56;;;;;;;7.93;1.83;;;;;;;;;;5031793;28;20435;-46
2023/07/13 09:07:29;;;;;;;4.07;1.83;;;;;;;;;;5050157;28;20440;-48
2023/07/13 09:10:02;;;;;;;3.10;1.63;;;;;;;;;;5051198;28;20446;-49
2023/07/13 09:12:37;;;;;;;4.63;1.67;;;;;;;;;;5050987;28;20453;-47
2023/07/13 09:15:05;;;;;;;4.40;1.93;;;;;;;;;;5051364;28;20847;-46
2023/07/13 09:17:36;;;;;;;4.73;1.70;;;;;;;;;;5050590;28;21046;-48
2023/07/13 09:20:06;;;;;;;3.67;1.50;;;;;;;;;;5049206;28;20428;-47
2023/07/13 09:22:35;;;;;;;4.97;1.97;;;;;;;;;;5050973;28;20228;-48
2023/07/13 09:25:06;;;;;;;3.83;1.70;;;;;;;;;;5050889;28;20427;-47
2023/07/13 09:27:36;;;;;;;3.50;1.63;;;;;;;;;;5051120;28;20583;-47
2023/07/13 09:30:11;;;;;;;5.10;1.70;;;;;;;;;;5050372;28;20437;-48
2023/07/13 09:32:40;;;;;;;8.10;2.00;;;;;;;;;;5050821;28;20458;-49
2023/07/13 09:35:12;;;;;;;5.63;2.20;;;26.20;58.40;;;;;;5050214;28;20431;-48
2023/07/13 09:37:41;;;;;;;5.07;2.57;;;;;;;;;;5050887;28;20744;-49
2023/07/13 09:40:13;;;;;;;4.00;1.80;;;;;;;;;;5053930;28;20506;-49
2023/07/13 09:42:40;;;;;;;12.40;2.53;;;;;;;;;;5053533;28;20950;-48
2023/07/13 09:45:09;;;;;;;3.33;1.90;;;26.20;57.60;;;;;;5054001;28;20462;-49
2023/07/13 09:47:41;;;;;;;3.70;2.10;;;;;;;;;;5054097;28;20837;-49
2023/07/13 09:50:17;;;;;;;4.63;2.90;;;;;;;;;;5053751;28;20430;-47
2023/07/13 09:52:46;;;;;;;5.82;2.60;;;;;;;;;;5053621;28;20446;-47
2023/07/13 09:55:25;;;;;;;4.72;2.58;;;;;;;;;;5051072;28;20525;-45
2023/07/13 09:57:52;;;;;;;3.95;2.10;;;;;;;;;;5046519;28;20448;-47
2023/07/13 10:00:24;;;;;;;5.43;2.90;;;;;;;;;;5051612;28;20208;-47
2023/07/13 10:03:03;;;;;;;7.73;2.93;;;26.60;55.00;;;;;;5050599;28;20491;-47
2023/07/13 10:05:38;;;;;;;12.97;3.37;;;;;;;;;;5045331;28;20463;-46
2023/07/13 10:08:06;;;;;;;8.73;2.67;;;26.60;56.00;;;;;;5045306;28;20465;-48
2023/07/13 10:10:35;;;;;;;4.13;3.03;;;;;;;;;;5053854;28;20529;-46
2023/07/13 10:13:04;;;;;;;5.57;3.20;;;;;;;;;;5053766;28;20436;-46
2023/07/13 10:15:31;;;;;;;6.13;2.50;;;26.90;56.10;;;;;;5053955;28;20507;-46
2023/07/13 10:17:58;;;;;;;9.77;2.90;;;;;;;;;;5053403;28;20460;-47
2023/07/13 10:20:28;;;;;;;4.67;2.40;;;;;;;;;;5053623;28;20435;-47
2023/07/13 10:22:58;;;;;;;10.67;3.90;;;;;;;;;;5053822;28;20485;-47
2023/07/13 10:25:28;;;;;;;7.77;3.73;;;;;;;;;;5053714;28;20952;-45
2023/07/13 10:27:58;;;;;;;5.13;2.70;;;;;;;;;;5052358;28;20536;-47
2023/07/13 10:30:28;;;;;;;4.20;3.07;;;;;;;;;;5048843;28;20434;-47
2023/07/13 10:32:55;;;;;;;9.07;2.97;;;27.80;54.30;;;;;;5052459;28;20474;-48
2023/07/13 10:35:23;;;;;;;3.90;2.30;;;;;;;;;;5053195;28;20437;-46
2023/07/13 10:37:57;;;;;;;8.52;2.50;;;28.20;53.30;;;;;;5052670;28;20897;-46
2023/07/13 10:40:30;;;;;;;7.87;2.63;;;28.20;53.50;;;;;;5053166;28;20547;-46
2023/07/13 10:42:59;;;;;;;6.23;2.93;;;;;;;;;;5053178;28;21041;-47
2023/07/13 10:45:26;;;;;;;4.70;2.17;;;;;;;;;;5052831;28;20525;-47
2023/07/13 10:47:55;;;;;;;9.53;2.50;;;;;;;;;;5052502;28;20437;-47
2023/07/13 10:50:25;;;;;;;4.23;2.33;;;28.30;53.10;;;;;;5052159;28;20454;-46
2023/07/13 10:52:56;;;;;;;5.78;2.67;;;;;;;;;;5051336;28;20501;-46
2023/07/13 10:55:33;;;;;;;4.10;2.67;;;;;;;;;;5052402;28;20294;-48
2023/07/13 10:58:02;;;;;;;7.83;2.70;;;;;;;;;;5052652;28;20947;-47
2023/07/13 11:00:34;;;;;;;4.70;2.57;;;;;;;;;;5052609;28;20918;-47
2023/07/13 11:03:01;;;;;;;8.52;3.13;;;;;;;;;;5052159;28;20447;-47
2023/07/13 11:05:30;;;;;;;5.00;2.47;;;;;;;;;;5052526;28;20214;-47
2023/07/13 11:08:05;;;;;;;5.43;2.40;;;;;;;;;;5052301;28;20442;-47
2023/07/13 11:10:49;;;;;;;3.85;2.58;;;28.60;52.50;;;;;;5051406;28;20423;-48
2023/07/13 11:13:35;;;;;;;7.97;2.70;;;;;;;;;;5052754;28;20664;-47
2023/07/13 11:16:13;;;;;;;7.27;3.00;;;;;;;;;;5052529;28;20447;-47
2023/07/13 11:18:42;;;;;;;7.47;2.93;;;;;;;;;;5051759;28;20892;-46
2023/07/13 11:21:16;;;;;;;7.70;3.77;;;;;;;;;;5052191;28;20456;-47
2023/07/13 11:23:45;;;;;;;5.93;3.03;;;;;;;;;;5052548;28;20993;-47
2023/07/13 11:26:27;;;;;;;9.80;3.13;;;;;;;;;;5051950;28;20462;-46
2023/07/13 11:28:54;;;;;;;9.35;2.95;;;;;;;;;;5051114;28;20481;-47
2023/07/13 11:31:22;;;;;;;4.47;2.43;;;;;;;;;;5052164;28;20723;-48
2023/07/13 11:33:59;;;;;;;5.43;2.60;;;;;;;;;;5051983;28;20810;-48
2023/07/13 11:36:37;;;;;;;4.63;3.17;;;27.90;51.90;;;;;;5051919;28;20430;-46
2023/07/13 11:39:15;;;;;;;3.63;2.57;;;27.90;52.30;;;;;;5051575;28;20510;-47
2023/07/13 11:41:45;;;;;;;6.57;2.73;;;;;;;;;;5051631;28;20461;-46
2023/07/13 11:44:14;;;;;;;3.73;2.57;;;27.80;51.20;;;;;;5051734;28;20426;-47
2023/07/13 11:46:46;;;;;;;4.35;2.53;;;28.10;50.40;;;;;;5050727;28;20417;-47
2023/07/13 11:49:15;;;;;;;4.00;2.73;;;;;;;;;;5051497;28;20261;-46
2023/07/13 11:51:42;;;;;;;8.03;3.10;;;;;;;;;;5051943;28;20474;-48
2023/07/13 11:54:21;;;;;;;7.17;3.07;;;;;;;;;;5051765;28;20431;-46
2023/07/13 11:56:49;;;;;;;4.10;2.83;;;;;;;;;;5051321;28;20446;-47
2023/07/13 11:59:16;;;;;;;29.03;2.93;;;;;;;;;;5051423;28;20438;-46
2023/07/13 12:01:45;;;;;;;6.00;2.17;;;;;;;;;;5049567;28;20470;-46
2023/07/13 12:04:21;;;;;;;3.70;2.10;;;;;;;;;;5050713;28;20986;-46
2023/07/13 12:06:48;;;;;;;7.20;2.40;;;;;;;;;;5043736;28;20794;-46
2023/07/13 12:09:16;;;;;;;3.53;2.13;;;;;;;;;;5031901;28;20451;-47
2023/07/13 12:11:44;;;;;;;3.87;2.43;;;;;;;;;;5032121;28;20526;-46
2023/07/13 12:14:15;;;;;;;8.20;2.80;;;;;;;;;;5031538;28;20539;-46
2023/07/13 12:16:42;;;;;;;3.50;2.20;;;;;;;;;;5031874;28;20814;-47
2023/07/13 12:19:17;;;;;;;6.07;2.30;;;;;;;;;;5031148;28;20434;-47
2023/07/13 12:21:45;;;;;;;5.43;2.23;;;27.60;50.10;;;;;;5030311;28;20478;-47
2023/07/13 12:24:17;;;;;;;4.83;2.40;;;;;;;;;;5030462;28;20545;-47
2023/07/13 12:26:44;;;;;;;6.23;2.70;;;27.60;50.40;;;;;;5035590;28;20450;-47
2023/07/13 12:29:16;;;;;;;4.37;2.90;;;;;;;;;;5052107;28;20441;-49
2023/07/13 12:31:44;;;;;;;8.00;4.20;;;;;;;;;;5058892;23;20603;-48
2023/07/13 12:34:12;;;;;;;5.00;2.30;;;;;;;;;;5030899;28;20424;-48
2023/07/13 12:36:48;;;;;;;6.43;2.50;;;;;;;;;;5031397;28;20557;-47
2023/07/13 12:39:18;;;;;;;10.60;2.50;;;27.30;50.70;;;;;;5031486;28;20585;-48
2023/07/13 12:41:45;;;;;;;5.80;2.67;;;;;;;;;;5031332;28;20506;-47
2023/07/13 12:44:13;;;;;;;8.03;2.63;;;;;;;;;;5027048;28;20524;-47
2023/07/13 12:46:40;;;;;;;7.07;2.63;;;27.40;50.20;;;;;;5031510;28;20463;-48
2023/07/13 12:49:08;;;;;;;5.27;1.93;;;27.40;49.50;;;;;;5025474;28;21101;-48
2023/07/13 12:51:35;;;;;;;6.40;2.60;;;;;;;;;;5011684;28;20452;-48
2023/07/13 12:54:08;;;;;;;4.23;2.17;;;;;;;;;;5010311;28;20973;-47
2023/07/13 12:56:36;;;;;;;5.60;2.10;;;27.40;48.90;;;;;;5011484;28;20466;-48
2023/07/13 12:59:03;;;;;;;6.03;2.10;;;;;;;;;;5011226;28;20445;-48
2023/07/13 13:01:34;;;;;;;4.07;2.10;;;;;;;;;;5011611;28;20468;-49
2023/07/13 13:04:06;;;;;;;4.17;1.93;;;;;;;;;;5011732;28;20487;-47
2023/07/13 13:06:35;;;;;;;4.50;2.00;;;27.40;48.30;;;;;;5022169;28;20449;-48
2023/07/13 13:09:03;;;;;;;4.80;1.90;;;;;;;;;;5030646;28;20443;-49
2023/07/13 13:11:32;;;;;;;3.97;2.00;;;27.30;49.10;;;;;;5031343;28;20878;-47
2023/07/13 13:14:00;;;;;;;14.83;2.20;;;27.30;49.30;;;;;;5033667;28;20455;-47
2023/07/13 13:16:32;;;;;;;4.40;2.23;;;;;;;;;;5034669;28;20585;-48
2023/07/13 13:19:02;;;;;;;5.13;2.13;;;27.50;49.40;;;;;;5034709;28;20522;-47
2023/07/13 13:21:29;;;;;;;4.20;2.00;;;27.60;49.20;;;;;;5033672;28;20995;-47
2023/07/13 13:23:56;;;;;;;5.20;2.13;;;;;;;;;;5034567;28;20490;-47
2023/07/13 13:26:23;;;;;;;4.83;2.33;;;27.70;49.10;;;;;;5034816;28;20439;-47
2023/07/13 13:28:51;;;;;;;2.47;1.70;;;;;;;;;;5034674;28;20522;-48
2023/07/13 13:31:19;;;;;;;5.20;2.47;;;;;;;;;;5035131;28;20471;-48
2023/07/13 13:33:48;;;;;;;4.97;2.40;;;27.80;49.60;;;;;;5034896;28;20472;-48
2023/07/13 13:36:16;;;;;;;4.60;2.43;;;27.90;49.50;;;;;;5034937;28;20453;-46
2023/07/13 13:38:43;;;;;;;4.73;2.10;;;28.00;49.50;;;;;;5034794;28;20451;-47
2023/07/13 13:41:11;;;;;;;6.33;2.53;;;;;;;;;;5034366;28;20561;-47
2023/07/13 13:43:37;;;;;;;14.57;2.63;;;28.20;48.90;;;;;;5019229;28;20556;-47
2023/07/13 13:46:11;;;;;;;6.20;1.87;;;;;;;;;;5015051;28;20754;-49
2023/07/13 13:48:41;;;;;;;4.50;2.33;;;;;;;;;;5023040;28;20438;-48
2023/07/13 13:51:14;;;;;;;3.37;2.13;;;;;;;;;;5034625;28;20845;-48
2023/07/13 13:53:41;;;;;;;3.93;2.80;;;;;;;;;;5033093;28;20458;-47
2023/07/13 13:56:08;;;;;;;3.10;2.20;;;;;;;;;;5034704;28;20435;-48
2023/07/13 13:58:35;;;;;;;6.30;4.13;;;27.90;49.00;;;;;;5034001;28;20327;-49
2023/07/13 14:01:02;;;;;;;6.10;3.00;;;28.00;49.00;;;;;;5032606;28;20437;-47
2023/07/13 14:03:29;;;;;;;7.30;3.30;;;;;;;;;;5028618;28;20455;-47
2023/07/13 14:05:58;;;;;;;3.23;1.63;;;;;;;;;;5016785;28;20436;-47